Bartlesville, OK (74006)

9:59 PM CDT on August 26, 2016 (GMT -0500)
Woodland Park | | Change Station

Elev 728 ft 36.74 °N, 95.94 °W | Updated 6 seconds ago

Clear
Clear
77.4 °F
Feels Like 79 °F
N
0.0
Wind Variable Wind from West
Gusts 0.7 mph

Today
High -- | Low -- °F
--% Chance of Precip.
Yesterday
High -- | Low -- °F
Precip. -- in
Pressure 30.00 in
Visibility 10.0 miles
Clouds Clear
Heat Index 79 °F
Dew Point 70 °F
Humidity 78%
Rainfall 0.07 in
Snow Depth Not available.
6:50 AM 7:59 PM
Waning Crescent, 29% visible
METAR KBVO 270253Z AUTO 00000KT 10SM CLR 23/21 A3002 RMK AO2 SLP157 T02280211 53009
Pressure 30.00 in
Visibility 10.0 miles
Clouds Clear
Heat Index 79 °F
Dew Point 70 °F
Humidity 78%
Rainfall 0.07 in
Snow Depth Not available.
6:50 AM 7:59 PM
Waning Crescent, 29% visible
METAR KBVO 270253Z AUTO 00000KT 10SM CLR 23/21 A3002 RMK AO2 SLP157 T02280211 53009

10-Day Weather Forecast

Almanac

Astronomy

Aug. 26, 2016 Rise Set
Actual Time
Civil Twilight
Nautical Twilight
Astronomical Twilight
Moon
Length of Visible Light
Length of Day
Tomorrow will be .
, % of the Moon is Illuminated

Today's Extremes

State Highs State Lows

Community

WunderPhotos

Upload Photos

1,935,281 photos uploaded!

WunderBlog® & News

Nearby

Air Quality

  Air Quality AQ Index Pollutant
Not available.

Snow Depth

Station Depth Elevation

Earthquake Activity

City Distance Mag. Time & Date
Minimum magnitude displayed is 2.5.

Coastal Water Temperatures

Place Temperature

Stations

Nearby Weather Stations

Station Location Temp. Windchill Dew Point Humidity Wind Precip. Elev Updated Type
                   

Watches & Warnings

There are currently no watches in effect.